Wetterdaten: Woche 26.04.10 - 02.05.10 (KW17)
Datum Zeit Temperatur Luftfeuchte Luftdruck Niederschlag Wind Richtung Sonnenschein Solar Taupunkt Windchill Windben
26.04.2010 00:00 17.2 C 55 % 1020.5 hPa 0.0 l/m 3.5 km/h (1 Bft) S-SO 0.00 h 0 W/m 8.2 C 17.2 C 6.8 km/h (2 Bft)
26.04.2010 01:00 16.7 C 60 % 1020.5 hPa 0.0 l/m 3.0 km/h (1 Bft) S-SO 0.00 h 0 W/m 8.8 C 16.7 C 5.7 km/h (1 Bft)
26.04.2010 02:00 15.7 C 64 % 1020.4 hPa 0.0 l/m 1.5 km/h (1 Bft) S-SO 0.00 h 0 W/m 9.0 C 15.7 C 3.2 km/h (1 Bft)
26.04.2010 03:00 13.8 C 70 % 1020.7 hPa 0.0 l/m 0.5 km/h (0 Bft) NW 0.00 h 0 W/m 8.3 C 13.8 C 1.6 km/h (1 Bft)
26.04.2010 04:00 14.0 C 65 % 1021.3 hPa 0.0 l/m 1.8 km/h (1 Bft) O-SO 0.00 h 0 W/m 7.5 C 14.0 C 3.7 km/h (1 Bft)
26.04.2010 05:00 15.0 C 64 % 1021.8 hPa 0.0 l/m 4.0 km/h (1 Bft) N-NW 0.00 h 0 W/m 8.2 C 15.0 C 7.6 km/h (2 Bft)
26.04.2010 06:00 14.6 C 69 % 1022.5 hPa 0.0 l/m 6.7 km/h (2 Bft) W 0.00 h 7 W/m 8.9 C 14.6 C 10.8 km/h (2 Bft)
26.04.2010 07:00 13.6 C 78 % 1023.3 hPa 0.6 l/m 2.3 km/h (1 Bft) W 0.00 h 16 W/m 9.9 C 13.6 C 4.8 km/h (1 Bft)
26.04.2010 08:00 12.9 C 87 % 1024.2 hPa 0.0 l/m 0.4 km/h (0 Bft) W-SW 0.02 h 80 W/m 10.7 C 12.9 C 1.6 km/h (1 Bft)
26.04.2010 09:00 13.7 C 85 % 1024.6 hPa 0.0 l/m 0.4 km/h (0 Bft) W-SW 0.08 h 183 W/m 11.1 C 13.7 C 1.7 km/h (1 Bft)
26.04.2010 10:00 16.1 C 75 % 1024.5 hPa 0.0 l/m 3.0 km/h (1 Bft) W 0.90 h 523 W/m 11.7 C 16.1 C 5.6 km/h (1 Bft)
26.04.2010 11:00 17.9 C 61 % 1024.4 hPa 0.0 l/m 5.4 km/h (1 Bft) W 0.78 h 679 W/m 10.1 C 17.9 C 8.7 km/h (2 Bft)
26.04.2010 12:00 19.9 C 46 % 1023.8 hPa 0.0 l/m 7.0 km/h (2 Bft) W-SW 1.00 h 836 W/m 7.8 C 19.9 C 10.7 km/h (2 Bft)
26.04.2010 13:00 21.2 C 37 % 1023.1 hPa 0.0 l/m 8.3 km/h (2 Bft) W-SW 1.00 h 856 W/m 5.7 C 21.2 C 12.8 km/h (3 Bft)
26.04.2010 14:00 21.9 C 31 % 1022.8 hPa 0.0 l/m 9.6 km/h (2 Bft) W-SW 1.00 h 809 W/m 3.8 C 21.9 C 15.5 km/h (3 Bft)
26.04.2010 15:00 22.1 C 31 % 1022.4 hPa 0.0 l/m 9.6 km/h (2 Bft) W 1.00 h 681 W/m 4.0 C 22.1 C 14.8 km/h (3 Bft)
26.04.2010 16:00 21.5 C 41 % 1021.9 hPa 0.0 l/m 8.1 km/h (2 Bft) N-NW 0.83 h 488 W/m 7.7 C 21.5 C 14.0 km/h (3 Bft)
26.04.2010 17:00 20.3 C 44 % 1021.8 hPa 0.0 l/m 3.8 km/h (1 Bft) NO 0.57 h 328 W/m 7.5 C 20.3 C 8.2 km/h (2 Bft)
26.04.2010 18:00 19.7 C 46 % 1021.8 hPa 0.0 l/m 3.5 km/h (1 Bft) O-SO 0.77 h 238 W/m 7.7 C 19.7 C 7.5 km/h (2 Bft)
26.04.2010 19:00 19.0 C 47 % 1022.0 hPa 0.0 l/m 2.8 km/h (1 Bft) O-SO 0.60 h 107 W/m 7.4 C 19.0 C 6.1 km/h (2 Bft)
26.04.2010 20:00 16.9 C 54 % 1022.5 hPa 0.0 l/m 1.2 km/h (1 Bft) O 0.00 h 11 W/m 7.5 C 16.9 C 3.6 km/h (1 Bft)
26.04.2010 21:00 15.3 C 62 % 1023.5 hPa 0.0 l/m 2.4 km/h (1 Bft) O 0.00 h 0 W/m 8.0 C 15.3 C 3.5 km/h (1 Bft)
26.04.2010 22:00 14.1 C 67 % 1023.8 hPa 0.0 l/m 0.9 km/h (0 Bft) O-SO 0.00 h 0 W/m 8.0 C 14.1 C 2.1 km/h (1 Bft)
26.04.2010 23:00 13.1 C 72 % 1023.7 hPa 0.0 l/m 2.3 km/h (1 Bft) O 0.00 h 0 W/m 8.2 C 13.1 C 3.7 km/h (1 Bft)
27.04.2010 00:00 12.2 C 76 % 1023.6 hPa 0.0 l/m 1.1 km/h (0 Bft) O-SO 0.00 h 0 W/m 8.2 C 12.2 C 2.1 km/h (1 Bft)
27.04.2010 01:00 12.2 C 78 % 1023.8 hPa 0.0 l/m 0.5 km/h (0 Bft) O-SO 0.00 h 0 W/m 8.5 C 12.2 C 1.2 km/h (1 Bft)
27.04.2010 02:00 11.9 C 81 % 1023.5 hPa 0.0 l/m 0.1 km/h (0 Bft) O-SO 0.00 h 0 W/m 8.7 C 11.9 C 0.3 km/h (0 Bft)
27.04.2010 03:00 11.4 C 83 % 1023.4 hPa 0.0 l/m 0.0 km/h (0 Bft) O-SO 0.00 h 0 W/m 8.5 C 11.4 C 0.2 km/h (0 Bft)
27.04.2010 04:00 10.7 C 85 % 1023.4 hPa 0.0 l/m 0.1 km/h (0 Bft) O-SO 0.00 h 0 W/m 8.3 C 10.7 C 0.6 km/h (0 Bft)
27.04.2010 05:00 10.5 C 85 % 1023.2 hPa 0.0 l/m 0.1 km/h (0 Bft) O-SO 0.00 h 0 W/m 8.1 C 10.5 C 0.5 km/h (0 Bft)
27.04.2010 06:00 10.1 C 86 % 1023.5 hPa 0.0 l/m 0.2 km/h (0 Bft) O-SO 0.00 h 13 W/m 7.7 C 10.1 C 0.6 km/h (0 Bft)
27.04.2010 07:00 9.9 C 86 % 1024.0 hPa 0.0 l/m 0.5 km/h (0 Bft) N-NW 0.00 h 71 W/m 7.8 C 9.9 C 1.3 km/h (1 Bft)
27.04.2010 08:00 11.7 C 77 % 1024.6 hPa 0.0 l/m 1.3 km/h (1 Bft) N-NW 0.63 h 240 W/m 7.9 C 11.7 C 3.0 km/h (1 Bft)
27.04.2010 09:00 14.5 C 65 % 1024.6 hPa 0.0 l/m 2.6 km/h (1 Bft) N-NW 1.00 h 458 W/m 8.0 C 14.5 C 4.9 km/h (1 Bft)
27.04.2010 10:00 17.4 C 52 % 1024.3 hPa 0.0 l/m 3.9 km/h (1 Bft) N-NO 1.00 h 618 W/m 7.5 C 17.4 C 7.8 km/h (2 Bft)
27.04.2010 11:00 18.7 C 49 % 1024.1 hPa 0.0 l/m 5.3 km/h (1 Bft) O-SO 1.00 h 771 W/m 7.8 C 18.7 C 9.7 km/h (2 Bft)
27.04.2010 12:00 19.6 C 43 % 1023.8 hPa 0.0 l/m 8.3 km/h (2 Bft) O-SO 0.92 h 792 W/m 6.6 C 19.6 C 13.9 km/h (3 Bft)
27.04.2010 13:00 20.1 C 41 % 1023.6 hPa 0.2 l/m 5.6 km/h (1 Bft) O-SO 0.72 h 698 W/m 6.6 C 20.1 C 10.3 km/h (2 Bft)
27.04.2010 14:00 20.7 C 40 % 1023.5 hPa 0.0 l/m 6.5 km/h (2 Bft) O-SO 0.90 h 777 W/m 6.5 C 20.7 C 11.3 km/h (2 Bft)
27.04.2010 15:00 21.1 C 37 % 1023.1 hPa 0.0 l/m 6.2 km/h (2 Bft) O-SO 0.88 h 702 W/m 5.9 C 21.1 C 10.6 km/h (2 Bft)
27.04.2010 16:00 21.0 C 37 % 1023.0 hPa 0.0 l/m 4.3 km/h (1 Bft) O-SO 0.47 h 361 W/m 5.7 C 21.0 C 8.3 km/h (2 Bft)
27.04.2010 17:00 21.3 C 36 % 1022.7 hPa 0.0 l/m 4.6 km/h (1 Bft) O-SO 0.93 h 410 W/m 5.5 C 21.3 C 8.0 km/h (2 Bft)
27.04.2010 18:00 20.9 C 36 % 1022.8 hPa 0.0 l/m 4.0 km/h (1 Bft) O-SO 0.77 h 238 W/m 5.2 C 20.9 C 7.0 km/h (2 Bft)
27.04.2010 19:00 19.7 C 39 % 1023.1 hPa 0.0 l/m 1.5 km/h (1 Bft) O-NO 0.30 h 71 W/m 5.4 C 19.7 C 3.8 km/h (1 Bft)
27.04.2010 20:00 17.0 C 49 % 1023.5 hPa 0.0 l/m 1.1 km/h (1 Bft) O-NO 0.00 h 10 W/m 6.0 C 17.0 C 2.8 km/h (1 Bft)
27.04.2010 21:00 15.0 C 56 % 1024.0 hPa 0.0 l/m 0.7 km/h (0 Bft) O 0.00 h 0 W/m 6.4 C 15.0 C 1.6 km/h (1 Bft)
27.04.2010 22:00 13.4 C 64 % 1024.7 hPa 0.0 l/m 0.4 km/h (0 Bft) O 0.00 h 0 W/m 6.7 C 13.4 C 0.9 km/h (0 Bft)
27.04.2010 23:00 12.6 C 66 % 1024.9 hPa 0.0 l/m 0.4 km/h (0 Bft) O 0.00 h 0 W/m 6.5 C 12.6 C 1.4 km/h (1 Bft)
28.04.2010 00:00 11.7 C 69 % 1025.0 hPa 0.0 l/m 0.3 km/h (0 Bft) O 0.00 h 0 W/m 6.2 C 11.7 C 1.1 km/h (0 Bft)
28.04.2010 01:00 10.7 C 73 % 1024.8 hPa 0.0 l/m 0.3 km/h (0 Bft) O 0.00 h 0 W/m 6.0 C 10.7 C 1.5 km/h (1 Bft)
28.04.2010 02:00 9.7 C 76 % 1024.8 hPa 0.0 l/m 1.6 km/h (1 Bft) O 0.00 h 0 W/m 5.7 C 9.7 C 2.8 km/h (1 Bft)
28.04.2010 03:00 9.0 C 78 % 1024.4 hPa 0.0 l/m 2.1 km/h (1 Bft) O 0.00 h 0 W/m 5.4 C 9.0 C 3.5 km/h (1 Bft)
28.04.2010 04:00 8.7 C 78 % 1024.4 hPa 0.0 l/m 3.4 km/h (1 Bft) O 0.00 h 0 W/m 5.1 C 8.6 C 5.2 km/h (1 Bft)
28.04.2010 05:00 7.7 C 82 % 1024.6 hPa 0.0 l/m 1.4 km/h (1 Bft) O 0.00 h 0 W/m 4.8 C 7.7 C 2.6 km/h (1 Bft)
28.04.2010 06:00 7.4 C 84 % 1025.0 hPa 0.0 l/m 0.5 km/h (0 Bft) O 0.20 h 23 W/m 4.9 C 7.4 C 1.2 km/h (1 Bft)
28.04.2010 07:00 8.3 C 84 % 1025.1 hPa 0.0 l/m 0.0 km/h (0 Bft) N 0.32 h 107 W/m 5.7 C 8.3 C 0.3 km/h (0 Bft)
28.04.2010 08:00 10.4 C 80 % 1025.1 hPa 0.0 l/m 0.4 km/h (0 Bft) N 0.78 h 249 W/m 7.1 C 10.4 C 1.6 km/h (1 Bft)
28.04.2010 09:00 13.7 C 68 % 1025.0 hPa 0.0 l/m 0.8 km/h (0 Bft) N 1.00 h 439 W/m 7.9 C 13.7 C 2.4 km/h (1 Bft)
28.04.2010 10:00 16.8 C 56 % 1024.5 hPa 0.0 l/m 2.8 km/h (1 Bft) O-SO 1.00 h 617 W/m 7.9 C 16.8 C 5.9 km/h (2 Bft)
28.04.2010 11:00 19.0 C 49 % 1024.1 hPa 0.0 l/m 4.5 km/h (1 Bft) O-SO 1.00 h 745 W/m 7.9 C 19.0 C 7.9 km/h (2 Bft)
28.04.2010 12:00 20.5 C 37 % 1023.7 hPa 0.0 l/m 11.0 km/h (2 Bft) O-SO 1.00 h 822 W/m 5.1 C 20.5 C 17.4 km/h (3 Bft)
28.04.2010 13:00 21.5 C 35 % 1023.0 hPa 0.0 l/m 5.7 km/h (1 Bft) O-SO 1.00 h 846 W/m 5.5 C 21.5 C 9.8 km/h (2 Bft)
28.04.2010 14:00 22.9 C 32 % 1022.3 hPa 0.0 l/m 4.5 km/h (1 Bft) O-SO 1.00 h 817 W/m 5.4 C 22.9 C 7.8 km/h (2 Bft)
28.04.2010 15:00 23.7 C 31 % 1021.6 hPa 0.0 l/m 2.8 km/h (1 Bft) S-SW 1.00 h 734 W/m 5.4 C 23.7 C 5.6 km/h (1 Bft)
28.04.2010 16:00 24.1 C 30 % 1021.0 hPa 0.0 l/m 1.8 km/h (1 Bft) W 1.00 h 609 W/m 5.4 C 24.1 C 3.8 km/h (1 Bft)
28.04.2010 17:00 24.0 C 27 % 1020.3 hPa 0.0 l/m 2.8 km/h (1 Bft) SO 1.00 h 456 W/m 3.8 C 24.0 C 5.1 km/h (1 Bft)
28.04.2010 18:00 24.4 C 26 % 1019.9 hPa 0.0 l/m 1.4 km/h (1 Bft) W-NW 1.00 h 281 W/m 3.7 C 24.4 C 3.4 km/h (1 Bft)
28.04.2010 19:00 23.9 C 28 % 1019.4 hPa 0.0 l/m 1.4 km/h (1 Bft) NW 0.95 h 114 W/m 4.4 C 23.9 C 3.1 km/h (1 Bft)
28.04.2010 20:00 19.8 C 39 % 1019.5 hPa 0.0 l/m 1.4 km/h (1 Bft) O 0.02 h 17 W/m 5.3 C 19.8 C 2.6 km/h (1 Bft)
28.04.2010 21:00 15.8 C 53 % 1020.2 hPa 0.0 l/m 3.4 km/h (1 Bft) O-SO 0.00 h 0 W/m 6.1 C 15.8 C 5.0 km/h (1 Bft)
28.04.2010 22:00 14.2 C 59 % 1020.4 hPa 0.0 l/m 0.9 km/h (0 Bft) O-SO 0.00 h 0 W/m 6.3 C 14.2 C 1.6 km/h (1 Bft)
28.04.2010 23:00 12.5 C 67 % 1020.3 hPa 0.0 l/m 1.2 km/h (1 Bft) O-SO 0.00 h 0 W/m 6.5 C 12.5 C 2.0 km/h (1 Bft)
29.04.2010 00:00 11.4 C 71 % 1019.9 hPa 0.0 l/m 0.9 km/h (0 Bft) O-SO 0.00 h 0 W/m 6.3 C 11.4 C 1.9 km/h (1 Bft)
29.04.2010 01:00 10.5 C 74 % 1019.9 hPa 0.0 l/m 0.9 km/h (0 Bft) O-SO 0.00 h 0 W/m 6.1 C 10.5 C 2.1 km/h (1 Bft)
29.04.2010 02:00 9.7 C 77 % 1019.9 hPa 0.0 l/m 0.4 km/h (0 Bft) O-SO 0.00 h 0 W/m 5.9 C 9.7 C 1.2 km/h (1 Bft)
29.04.2010 03:00 9.0 C 79 % 1019.4 hPa 0.0 l/m 1.2 km/h (1 Bft) O-SO 0.00 h 0 W/m 5.6 C 9.0 C 2.2 km/h (1 Bft)
29.04.2010 04:00 8.6 C 81 % 1019.3 hPa 0.0 l/m 0.3 km/h (0 Bft) O 0.00 h 0 W/m 5.4 C 8.6 C 1.1 km/h (0 Bft)
29.04.2010 05:00 7.8 C 84 % 1019.0 hPa 0.0 l/m 0.4 km/h (0 Bft) O 0.00 h 0 W/m 5.2 C 7.8 C 1.0 km/h (0 Bft)
29.04.2010 06:00 7.2 C 86 % 1018.8 hPa 0.0 l/m 0.8 km/h (0 Bft) O 0.05 h 17 W/m 5.0 C 7.2 C 1.6 km/h (1 Bft)
29.04.2010 07:00 8.4 C 84 % 1018.8 hPa 0.0 l/m 0.2 km/h (0 Bft) O 0.35 h 87 W/m 5.8 C 8.4 C 0.8 km/h (0 Bft)
29.04.2010 08:00 11.5 C 74 % 1018.8 hPa 0.0 l/m 0.3 km/h (0 Bft) S 1.00 h 288 W/m 7.1 C 11.5 C 0.9 km/h (0 Bft)
29.04.2010 09:00 14.6 C 66 % 1018.3 hPa 0.0 l/m 2.0 km/h (1 Bft) SO 1.00 h 462 W/m 8.3 C 14.6 C 4.1 km/h (1 Bft)
29.04.2010 10:00 18.6 C 57 % 1017.5 hPa 0.0 l/m 3.3 km/h (1 Bft) S-SO 1.00 h 619 W/m 9.9 C 18.6 C 7.4 km/h (2 Bft)
29.04.2010 11:00 21.5 C 49 % 1016.9 hPa 0.0 l/m 4.3 km/h (1 Bft) S-SO 1.00 h 728 W/m 10.3 C 21.5 C 8.2 km/h (2 Bft)
29.04.2010 12:00 23.8 C 44 % 1015.8 hPa 0.0 l/m 5.3 km/h (1 Bft) S-SO 1.00 h 811 W/m 10.6 C 23.8 C 10.0 km/h (2 Bft)
29.04.2010 13:00 25.4 C 39 % 1014.7 hPa 0.0 l/m 6.2 km/h (2 Bft) S-SO 1.00 h 820 W/m 10.5 C 25.4 C 11.4 km/h (2 Bft)
29.04.2010 14:00 26.5 C 35 % 1013.8 hPa 0.0 l/m 5.2 km/h (1 Bft) SW 1.00 h 795 W/m 9.7 C 26.5 C 9.8 km/h (2 Bft)
29.04.2010 15:00 26.9 C 32 % 1013.1 hPa 0.0 l/m 5.6 km/h (1 Bft) S-SO 1.00 h 702 W/m 8.7 C 26.9 C 10.2 km/h (2 Bft)
29.04.2010 16:00 27.4 C 28 % 1012.1 hPa 0.0 l/m 6.6 km/h (2 Bft) S-SO 1.00 h 591 W/m 7.0 C 27.4 C 11.6 km/h (2 Bft)
29.04.2010 17:00 27.9 C 26 % 1011.3 hPa 0.0 l/m 6.6 km/h (2 Bft) S-SW 1.00 h 450 W/m 6.6 C 27.9 C 13.4 km/h (3 Bft)
29.04.2010 18:00 26.9 C 25 % 1010.9 hPa 0.0 l/m 5.9 km/h (2 Bft) SW 0.73 h 236 W/m 5.2 C 26.9 C 10.3 km/h (2 Bft)
29.04.2010 19:00 25.0 C 25 % 1010.6 hPa 0.0 l/m 7.5 km/h (2 Bft) SW 0.22 h 80 W/m 3.3 C 25.0 C 13.1 km/h (3 Bft)
29.04.2010 20:00 23.5 C 31 % 1010.5 hPa 0.0 l/m 4.6 km/h (1 Bft) S-SW 0.05 h 19 W/m 5.3 C 23.5 C 8.6 km/h (2 Bft)
29.04.2010 21:00 21.8 C 36 % 1010.6 hPa 0.0 l/m 4.3 km/h (1 Bft) S-SO 0.00 h 0 W/m 6.1 C 21.8 C 8.1 km/h (2 Bft)
29.04.2010 22:00 19.6 C 43 % 1011.1 hPa 0.0 l/m 3.0 km/h (1 Bft) O-SO 0.00 h 0 W/m 6.8 C 19.6 C 4.7 km/h (1 Bft)
29.04.2010 23:00 17.6 C 52 % 1011.1 hPa 0.0 l/m 1.4 km/h (1 Bft) O 0.00 h 0 W/m 7.4 C 17.6 C 2.7 km/h (1 Bft)
30.04.2010 00:00 15.8 C 60 % 1011.1 hPa 0.0 l/m 0.8 km/h (0 Bft) O 0.00 h 0 W/m 8.1 C 15.8 C 1.8 km/h (1 Bft)
30.04.2010 01:00 15.0 C 66 % 1011.7 hPa 0.0 l/m 2.6 km/h (1 Bft) O-SO 0.00 h 0 W/m 8.8 C 15.0 C 4.5 km/h (1 Bft)
30.04.2010 02:00 15.3 C 66 % 1011.3 hPa 0.0 l/m 1.8 km/h (1 Bft) O-SO 0.00 h 0 W/m 8.9 C 15.3 C 3.2 km/h (1 Bft)
30.04.2010 03:00 15.1 C 71 % 1011.6 hPa 0.4 l/m 2.3 km/h (1 Bft) O-SO 0.00 h 0 W/m 9.7 C 15.1 C 4.2 km/h (1 Bft)
30.04.2010 04:00 14.7 C 85 % 1012.2 hPa 1.8 l/m 5.4 km/h (1 Bft) S-SO 0.00 h 0 W/m 12.3 C 14.7 C 8.7 km/h (2 Bft)
30.04.2010 05:00 14.4 C 89 % 1012.6 hPa 0.4 l/m 2.7 km/h (1 Bft) O-SO 0.00 h 0 W/m 12.7 C 14.4 C 4.8 km/h (1 Bft)
30.04.2010 06:00 14.1 C 92 % 1012.6 hPa 0.0 l/m 1.1 km/h (0 Bft) O-SO 0.00 h 13 W/m 12.7 C 14.1 C 2.3 km/h (1 Bft)
30.04.2010 07:00 14.2 C 92 % 1012.8 hPa 0.2 l/m 0.1 km/h (0 Bft) S-SO 0.00 h 34 W/m 12.9 C 14.2 C 0.8 km/h (0 Bft)
30.04.2010 08:00 14.6 C 93 % 1012.9 hPa 0.0 l/m 0.2 km/h (0 Bft) S-SO 0.00 h 92 W/m 13.6 C 14.6 C 0.7 km/h (0 Bft)
30.04.2010 09:00 15.7 C 91 % 1012.9 hPa 0.0 l/m 0.7 km/h (0 Bft) W-SW 0.10 h 222 W/m 14.3 C 15.7 C 2.3 km/h (1 Bft)
30.04.2010 10:00 16.7 C 86 % 1012.9 hPa 0.2 l/m 2.4 km/h (1 Bft) W-SW 0.17 h 286 W/m 14.4 C 16.7 C 4.5 km/h (1 Bft)
30.04.2010 11:00 18.3 C 71 % 1013.0 hPa 0.0 l/m 9.7 km/h (2 Bft) W 0.82 h 576 W/m 13.0 C 18.3 C 15.4 km/h (3 Bft)
30.04.2010 12:00 18.6 C 66 % 1013.0 hPa 0.0 l/m 9.3 km/h (2 Bft) W 0.18 h 361 W/m 12.1 C 18.6 C 14.4 km/h (3 Bft)
30.04.2010 13:00 18.7 C 67 % 1012.3 hPa 0.0 l/m 4.5 km/h (1 Bft) W 0.03 h 320 W/m 12.5 C 18.7 C 7.2 km/h (2 Bft)
30.04.2010 14:00 19.3 C 63 % 1011.6 hPa 0.0 l/m 6.0 km/h (2 Bft) W 0.08 h 379 W/m 12.2 C 19.3 C 9.7 km/h (2 Bft)
30.04.2010 15:00 19.7 C 61 % 1011.1 hPa 0.0 l/m 5.5 km/h (1 Bft) W 0.22 h 367 W/m 11.9 C 19.7 C 9.0 km/h (2 Bft)
30.04.2010 16:00 18.7 C 61 % 1011.0 hPa 0.0 l/m 13.0 km/h (3 Bft) W 0.07 h 196 W/m 11.1 C 18.7 C 19.9 km/h (4 Bft)
30.04.2010 17:00 16.0 C 78 % 1011.5 hPa 0.2 l/m 10.1 km/h (2 Bft) W 0.00 h 59 W/m 12.1 C 16.0 C 15.2 km/h (3 Bft)
30.04.2010 18:00 16.0 C 78 % 1011.8 hPa 0.0 l/m 6.3 km/h (2 Bft) W-NW 0.08 h 131 W/m 12.0 C 16.0 C 9.8 km/h (2 Bft)
30.04.2010 19:00 15.9 C 75 % 1011.8 hPa 0.2 l/m 6.3 km/h (2 Bft) W 0.00 h 40 W/m 11.6 C 15.9 C 10.2 km/h (2 Bft)
30.04.2010 20:00 15.4 C 78 % 1012.0 hPa 0.0 l/m 7.6 km/h (2 Bft) W 0.00 h 9 W/m 11.5 C 15.4 C 12.0 km/h (2 Bft)
30.04.2010 21:00 14.7 C 80 % 1012.6 hPa 0.0 l/m 5.6 km/h (1 Bft) W-NW 0.00 h 0 W/m 11.3 C 14.7 C 9.8 km/h (2 Bft)
30.04.2010 22:00 14.1 C 84 % 1013.1 hPa 0.2 l/m 1.7 km/h (1 Bft) W 0.00 h 0 W/m 11.4 C 14.1 C 3.8 km/h (1 Bft)
30.04.2010 23:00 13.5 C 88 % 1013.3 hPa 0.0 l/m 0.6 km/h (0 Bft) S 0.00 h 0 W/m 11.5 C 13.5 C 2.2 km/h (1 Bft)
01.05.2010 00:00 13.0 C 88 % 1012.8 hPa 0.0 l/m 0.5 km/h (0 Bft) S 0.00 h 0 W/m 11.1 C 13.0 C 1.6 km/h (1 Bft)
01.05.2010 01:00 12.7 C 90 % 1012.5 hPa 0.0 l/m 0.9 km/h (0 Bft) O 0.00 h 0 W/m 11.0 C 12.7 C 1.8 km/h (1 Bft)
01.05.2010 02:00 12.1 C 93 % 1012.1 hPa 0.2 l/m 0.5 km/h (0 Bft) O 0.00 h 0 W/m 11.0 C 12.1 C 1.3 km/h (1 Bft)
01.05.2010 03:00 12.2 C 94 % 1011.7 hPa 0.2 l/m 0.0 km/h (0 Bft) N 0.00 h 0 W/m 11.3 C 12.2 C 0.3 km/h (0 Bft)
01.05.2010 04:00 12.1 C 95 % 1011.3 hPa 0.0 l/m 0.1 km/h (0 Bft) O 0.00 h 0 W/m 11.3 C 12.1 C 0.3 km/h (0 Bft)
01.05.2010 05:00 12.0 C 95 % 1011.0 hPa 0.0 l/m 0.3 km/h (0 Bft) NW 0.00 h 0 W/m 11.3 C 12.0 C 0.8 km/h (0 Bft)
01.05.2010 06:00 12.1 C 95 % 1010.8 hPa 0.0 l/m 0.8 km/h (0 Bft) O-SO 0.00 h 6 W/m 11.4 C 12.1 C 2.0 km/h (1 Bft)
01.05.2010 07:00 12.3 C 95 % 1011.1 hPa 1.0 l/m 0.3 km/h (0 Bft) W 0.00 h 12 W/m 11.5 C 12.3 C 0.8 km/h (0 Bft)
01.05.2010 08:00 12.3 C 96 % 1011.5 hPa 1.8 l/m 0.6 km/h (0 Bft) W-NW 0.00 h 25 W/m 11.7 C 12.3 C 1.9 km/h (1 Bft)
01.05.2010 09:00 12.4 C 95 % 1011.7 hPa 1.2 l/m 0.1 km/h (0 Bft) W-NW 0.00 h 46 W/m 11.6 C 12.4 C 0.8 km/h (0 Bft)
01.05.2010 10:00 12.4 C 96 % 1012.0 hPa 0.8 l/m 0.3 km/h (0 Bft) W-NW 0.00 h 87 W/m 11.7 C 12.4 C 1.4 km/h (1 Bft)
01.05.2010 11:00 12.5 C 94 % 1012.1 hPa 1.4 l/m 0.1 km/h (0 Bft) W-NW 0.00 h 111 W/m 11.4 C 12.5 C 0.7 km/h (0 Bft)
01.05.2010 12:00 12.7 C 93 % 1011.9 hPa 0.6 l/m 0.6 km/h (0 Bft) W-NW 0.00 h 101 W/m 11.6 C 12.7 C 2.1 km/h (1 Bft)
01.05.2010 13:00 13.4 C 94 % 1011.6 hPa 0.6 l/m 0.5 km/h (0 Bft) S-SO 0.00 h 191 W/m 12.5 C 13.4 C 1.9 km/h (1 Bft)
01.05.2010 14:00 13.9 C 93 % 1011.1 hPa 1.0 l/m 0.8 km/h (0 Bft) S-SO 0.00 h 195 W/m 12.7 C 13.9 C 2.2 km/h (1 Bft)
01.05.2010 15:00 14.1 C 91 % 1010.8 hPa 0.0 l/m 1.8 km/h (1 Bft) S-SO 0.00 h 197 W/m 12.7 C 14.1 C 4.2 km/h (1 Bft)
01.05.2010 16:00 13.9 C 91 % 1010.3 hPa 2.8 l/m 3.9 km/h (1 Bft) S-SO 0.00 h 119 W/m 12.4 C 13.9 C 7.1 km/h (2 Bft)
01.05.2010 17:00 12.8 C 92 % 1010.7 hPa 0.8 l/m 1.8 km/h (1 Bft) O-SO 0.00 h 53 W/m 11.6 C 12.8 C 3.3 km/h (1 Bft)
01.05.2010 18:00 12.7 C 92 % 1010.6 hPa 1.0 l/m 0.5 km/h (0 Bft) O-SO 0.00 h 45 W/m 11.5 C 12.7 C 1.6 km/h (1 Bft)
01.05.2010 19:00 12.3 C 94 % 1010.6 hPa 0.8 l/m 0.7 km/h (0 Bft) S-SO 0.00 h 25 W/m 11.3 C 12.3 C 1.8 km/h (1 Bft)
01.05.2010 20:00 12.2 C 95 % 1010.9 hPa 1.8 l/m 1.2 km/h (1 Bft) SW 0.00 h 0 W/m 11.4 C 12.2 C 2.6 km/h (1 Bft)
01.05.2010 21:00 11.3 C 95 % 1011.6 hPa 0.2 l/m 5.0 km/h (1 Bft) W 0.00 h 0 W/m 10.5 C 11.3 C 8.6 km/h (2 Bft)
01.05.2010 22:00 11.0 C 95 % 1012.1 hPa 0.0 l/m 2.2 km/h (1 Bft) W-NW 0.00 h 0 W/m 10.3 C 11.0 C 4.5 km/h (1 Bft)
01.05.2010 23:00 11.0 C 95 % 1011.9 hPa 0.0 l/m 1.4 km/h (1 Bft) S-SO 0.00 h 0 W/m 10.2 C 11.0 C 3.0 km/h (1 Bft)
02.05.2010 00:00 10.9 C 93 % 1011.7 hPa 0.0 l/m 1.9 km/h (1 Bft) S-SO 0.00 h 0 W/m 9.9 C 10.9 C 3.6 km/h (1 Bft)
02.05.2010 01:00 10.8 C 94 % 1011.7 hPa 0.2 l/m 0.7 km/h (0 Bft) SO 0.00 h 0 W/m 9.8 C 10.8 C 2.2 km/h (1 Bft)
02.05.2010 02:00 10.6 C 95 % 1011.4 hPa 0.0 l/m 0.1 km/h (0 Bft) SO 0.00 h 0 W/m 9.8 C 10.6 C 0.2 km/h (0 Bft)
02.05.2010 03:00 10.3 C 96 % 1011.0 hPa 0.0 l/m 0.3 km/h (0 Bft) SO 0.00 h 0 W/m 9.7 C 10.3 C 1.2 km/h (1 Bft)
02.05.2010 04:00 10.3 C 96 % 1010.7 hPa 0.2 l/m 0.1 km/h (0 Bft) SO 0.00 h 0 W/m 9.7 C 10.3 C 0.7 km/h (0 Bft)
02.05.2010 05:00 10.3 C 96 % 1010.2 hPa 0.0 l/m 0.0 km/h (0 Bft) N 0.00 h 0 W/m 9.7 C 10.3 C 0.0 km/h (0 Bft)
02.05.2010 06:00 10.3 C 97 % 1009.7 hPa 0.0 l/m 0.4 km/h (0 Bft) W 0.00 h 7 W/m 9.9 C 10.3 C 1.2 km/h (1 Bft)
02.05.2010 07:00 10.5 C 97 % 1009.8 hPa 0.8 l/m 0.8 km/h (0 Bft) W 0.00 h 15 W/m 10.0 C 10.5 C 2.0 km/h (1 Bft)
02.05.2010 08:00 10.6 C 97 % 1010.0 hPa 1.4 l/m 0.0 km/h (0 Bft) W 0.00 h 50 W/m 10.2 C 10.6 C 0.2 km/h (0 Bft)
02.05.2010 09:00 10.7 C 97 % 1010.2 hPa 2.6 l/m 0.1 km/h (0 Bft) W 0.00 h 50 W/m 10.2 C 10.7 C 0.5 km/h (0 Bft)
02.05.2010 10:00 10.9 C 96 % 1010.4 hPa 1.4 l/m 0.7 km/h (0 Bft) W 0.00 h 133 W/m 10.4 C 10.9 C 2.0 km/h (1 Bft)
02.05.2010 11:00 11.5 C 95 % 1010.5 hPa 0.4 l/m 1.1 km/h (1 Bft) W 0.00 h 191 W/m 10.8 C 11.5 C 3.1 km/h (1 Bft)
02.05.2010 12:00 11.7 C 94 % 1010.5 hPa 1.4 l/m 1.1 km/h (1 Bft) SO 0.00 h 152 W/m 10.8 C 11.7 C 3.4 km/h (1 Bft)
02.05.2010 13:00 11.8 C 95 % 1010.2 hPa 1.0 l/m 1.3 km/h (1 Bft) S 0.00 h 116 W/m 10.9 C 11.8 C 3.5 km/h (1 Bft)
02.05.2010 14:00 11.4 C 93 % 1010.2 hPa 1.6 l/m 2.3 km/h (1 Bft) S-SO 0.00 h 101 W/m 10.4 C 11.4 C 4.9 km/h (1 Bft)
02.05.2010 15:00 11.6 C 91 % 1010.0 hPa 0.2 l/m 1.9 km/h (1 Bft) S-SO 0.00 h 203 W/m 10.2 C 11.6 C 4.2 km/h (1 Bft)
02.05.2010 16:00 12.0 C 93 % 1009.6 hPa 0.0 l/m 1.6 km/h (1 Bft) SW 0.00 h 202 W/m 10.9 C 12.0 C 4.1 km/h (1 Bft)
02.05.2010 17:00 11.7 C 93 % 1009.6 hPa 0.2 l/m 1.6 km/h (1 Bft) SW 0.00 h 101 W/m 10.6 C 11.7 C 4.2 km/h (1 Bft)
02.05.2010 18:00 11.1 C 92 % 1009.8 hPa 0.6 l/m 1.9 km/h (1 Bft) S-SO 0.00 h 54 W/m 9.9 C 11.1 C 4.6 km/h (1 Bft)
02.05.2010 19:00 10.5 C 94 % 1009.8 hPa 1.0 l/m 0.8 km/h (0 Bft) S-SO 0.00 h 18 W/m 9.5 C 10.5 C 2.3 km/h (1 Bft)
02.05.2010 20:00 10.2 C 95 % 1009.9 hPa 0.4 l/m 0.2 km/h (0 Bft) O-SO 0.00 h 7 W/m 9.5 C 10.2 C 0.6 km/h (0 Bft)
02.05.2010 21:00 10.2 C 95 % 1010.1 hPa 0.8 l/m 0.5 km/h (0 Bft) O-SO 0.00 h 0 W/m 9.5 C 10.2 C 1.2 km/h (1 Bft)
02.05.2010 22:00 10.0 C 95 % 1010.3 hPa 1.0 l/m 2.1 km/h (1 Bft) O-SO 0.00 h 0 W/m 9.3 C 10.0 C 4.2 km/h (1 Bft)
02.05.2010 23:00 9.8 C 92 % 1010.1 hPa 0.0 l/m 4.2 km/h (1 Bft) SO 0.00 h 0 W/m 8.6 C 9.6 C 7.2 km/h (2 Bft)
Min-Datum _ 29.04.10 28.04.10 02.05.10 - 26.04.10 - - - 28.04.10 28.04.10 26.04.10
_ Min-Zeit 06:05 18:00 16:30 - 00:10 - - - 18:00 05:34 02:34
Minimum _ 6.8 C 22 % 1009.5 hPa - 0.0 km/h (0 Bft) - - - 1.4 C 6.6 C 0.0 km/h (0 Bft)
Max-Datum _ 29.04.10 02.05.10 28.04.10 01.05.10 30.04.10 - 26.04.10 27.04.10 30.04.10 29.04.10 30.04.10
_ Max-Zeit 17:30 05:57 00:30 16:41 16:41 - 08:59 13:15 10:46 17:30 16:43
Maximum _ 28.6 C 97 % 1025.2 hPa 2.8 l/m 20.9 km/h
W (4 Bft)
- 0.02 h 977 W/m 15.2 C 28.6 C 34.8 km/h
W (5 Bft)
Durchschnitt _ 15.1 C 71 % 1016.9 hPa #35.8 l/m 2.6 km/h (1 Bft) O-SO #43:29 h 187 W/m 8.7 C 15.1 C 4.9 km/h (1 Bft)
© Kaiko 2010